PACD Airport Information

Runway Information
Runway 08 Length 4235 ft width 150 ft
Elevation 93 ft Threshold 0 ft Heading 95
Runway 26 Length 4235 ft Width 150 ft
Elevation 96 ft Threshold 0 ft Heading 275
Runway 14 Length 10415 ft width 150 ft
Elevation 69 ft Threshold 0 ft Heading 158
Runway 32 Length 10415 ft Width 150 ft
Elevation 89 ft Threshold 0 ft Heading 338
Airport Frequencies
Type ASOS Name ASOS Frequency 135.75 MHZ
Type CNTR Name ANCHORAGE Frequency 118.5 MHZ
Type CTAF Name CTAF Frequency 123.6 MHZ
Type FSS Name RDO Frequency 123.6 MHZ
Type RFSS Name KENAI RDO Frequency 123.6 MHZ
Airport Navaids
Type NDB Name Elfee Frequency 341 KHZ
Type VORTAC Name Cold Bay Frequency 112600 KHZ
Airport Weather Information & NOTAM
ADDS - METARS form results

(2333 UTC 20 March 2019)
Data provider http://aviationweather.gov/metar/data/
 
METAR text: PACD 202322Z 36022G28KT 10SM FEW008 BKN014 OVC018 03/M01 A2919 RMK AO2 PK WND 36028/2318 UPB15E19RAB20E21SNB2259E15B19E20 P0000 T00281011
Conditions at: PACD (COLD BAY , AK, US) observed 2322 UTC 20 March 2019
Temperature: 2.8°C (37°F)
Dewpoint: -1.1°C (30°F) [RH = 75%]
Pressure (altimeter): 29.19 inches Hg (988.6 mb)
Winds: from the N (360 degrees) at 25 MPH (22 knots; 11.3 m/s)
gusting to 32 MPH (28 knots; 14.4 m/s)
Visibility: 10 or more miles (16+ km)
Ceiling: 1400 feet AGL
Clouds: few clouds at 800 feet AGL
broken clouds at 1400 feet AGL
overcast cloud deck at 1800 feet AGL
Weather: no significant weather observed at this time

METAR text: PACD 202253Z 01019G26KT 10SM BKN013 OVC024 03/M01 A2920 RMK AO2 PK WND 01028/2229 SLP887 T00331006
Conditions at: PACD (COLD BAY , AK, US) observed 2253 UTC 20 March 2019
Temperature: 3.3°C (38°F)
Dewpoint: -0.6°C (31°F) [RH = 76%]
Pressure (altimeter): 29.20 inches Hg (988.9 mb)
[Sea-level pressure:  988.7 mb]
Winds: from the N (10 degrees) at 22 MPH (19 knots; 9.8 m/s)
gusting to 30 MPH (26 knots; 13.4 m/s)
Visibility: 10 or more miles (16+ km)
Ceiling: 1300 feet AGL
Clouds: broken clouds at 1300 feet AGL
overcast cloud deck at 2400 feet AGL
Weather: no significant weather observed at this time

METAR text: PACD 202244Z 36017G26KT 10SM BKN013 BKN024 BKN039 03/M01 A2920 RMK AO2 PK WND 01028/2229 T00331006
Conditions at: PACD (COLD BAY , AK, US) observed 2244 UTC 20 March 2019
Temperature: 3.3°C (38°F)
Dewpoint: -0.6°C (31°F) [RH = 76%]
Pressure (altimeter): 29.20 inches Hg (988.9 mb)
Winds: from the N (360 degrees) at 20 MPH (17 knots; 8.7 m/s)
gusting to 30 MPH (26 knots; 13.4 m/s)
Visibility: 10 or more miles (16+ km)
Ceiling: 1300 feet AGL
Clouds: broken clouds at 1300 feet AGL
broken clouds at 2400 feet AGL
broken clouds at 3900 feet AGL
Weather: no significant weather observed at this time

METAR text: PACD 202234Z 36022G28KT 10SM BKN015 03/M01 A2920 RMK AO2 PK WND 01028/2229 T00281011
Conditions at: PACD (COLD BAY , AK, US) observed 2234 UTC 20 March 2019
Temperature: 2.8°C (37°F)
Dewpoint: -1.1°C (30°F) [RH = 75%]
Pressure (altimeter): 29.20 inches Hg (988.9 mb)
Winds: from the N (360 degrees) at 25 MPH (22 knots; 11.3 m/s)
gusting to 32 MPH (28 knots; 14.4 m/s)
Visibility: 10 or more miles (16+ km)
Ceiling: 1500 feet AGL
Clouds: broken clouds at 1500 feet AGL
Weather: no significant weather observed at this time

Forecast for: PACD (COLD BAY , AK, US)
Text: PACD 202050Z 2021/2118 36014KT P6SM BKN100
Forecast period: 2100 UTC 20 March 2019 to 0000 UTC 21 March 2019
Forecast type: FROM: standard forecast or significant change
Winds: from the N (360 degrees) at 16 MPH (14 knots; 7.2 m/s)
Visibility: 6 or more miles 10+ km)
Ceiling: 10000 feet AGL
Clouds: broken clouds at 10000 feet AGL
Weather: no significant weather forecast for this period
Text: FM210000 01015G22KT P6SM OVC015
Forecast period: 0000 to 1500 UTC 21 March 2019
Forecast type: FROM: standard forecast or significant change
Winds: from the N (10 degrees) at 17 MPH (15 knots; 7.7 m/s)
gusting to 25 MPH (22 knots; 11.3 m/s)
Visibility: 6 or more miles 10+ km)
Ceiling: 1500 feet AGL
Clouds: overcast cloud deck at 1500 feet AGL
Weather: no significant weather forecast for this period
Text: FM211500 34010KT 6SM -RASN OVC010
Forecast period: 1500 to 1800 UTC 21 March 2019
Forecast type: FROM: standard forecast or significant change
Winds: from the NNW (340 degrees) at 12 MPH (10 knots; 5.1 m/s)
Visibility: 6 miles (10 km)
Ceiling: 1000 feet AGL
Clouds: overcast cloud deck at 1000 feet AGL
Weather: -RA -SN  (light rain, light snow)